Terminal Aerodrome Forecast
Issued by NWS

Home | Current Version | Previous Version | Text Only | Print | Product List | Glossary On
Versions: 1 2 3 4 5 6 7 8 9 10 11 12 13 14 15 16 17 18 19 20 21 22 23 24
000
FTUS42 KMLB 292340
TAFSFB
TAF
KSFB 292340Z 3000/3024 26006KT P6SM FEW040 SCT110 SCT250
     FM300600 25003KT P6SM SCT005 SCT100 SCT250
     FM301400 21008KT P6SM VCSH SCT020 SCT050 BKN250
     FM301800 24008KT P6SM VCTS SCT040CB BKN100 BKN250
      TEMPO 3019/3021 3SM TSRA BKN035CB=

USA.gov is the U.S. government's official web portal to all federal, state and local government web resources and services.